sensor_id;sensor_type;location;lat;lon;timestamp;pressure;altitude;pressure_sealevel;temperature;humidity
7480;BME280;3781;42.272;22.658;2022-12-10T00:02:10;93957.13;;;14.44;73.29
7480;BME280;3781;42.272;22.658;2022-12-10T00:04:37;93963.78;;;14.55;71.79
7480;BME280;3781;42.272;22.658;2022-12-10T00:07:03;93934.28;;;14.46;71.91
7480;BME280;3781;42.272;22.658;2022-12-10T00:09:30;93942.56;;;14.19;75.44
7480;BME280;3781;42.272;22.658;2022-12-10T00:11:57;93957.66;;;14.09;76.81
7480;BME280;3781;42.272;22.658;2022-12-10T00:14:24;93959.00;;;13.97;78.18
7480;BME280;3781;42.272;22.658;2022-12-10T00:16:50;93944.47;;;13.94;77.64
7480;BME280;3781;42.272;22.658;2022-12-10T00:19:19;93948.81;;;14.10;77.57
7480;BME280;3781;42.272;22.658;2022-12-10T00:21:46;93947.97;;;14.17;76.05
7480;BME280;3781;42.272;22.658;2022-12-10T00:24:13;93956.63;;;14.18;75.17
7480;BME280;3781;42.272;22.658;2022-12-10T00:26:40;93953.34;;;14.16;73.86
7480;BME280;3781;42.272;22.658;2022-12-10T00:29:09;93943.50;;;14.26;72.60
7480;BME280;3781;42.272;22.658;2022-12-10T00:31:37;93938.25;;;14.34;71.50
7480;BME280;3781;42.272;22.658;2022-12-10T00:34:06;93966.91;;;14.50;72.22
7480;BME280;3781;42.272;22.658;2022-12-10T00:36:37;93973.75;;;14.51;72.53
7480;BME280;3781;42.272;22.658;2022-12-10T00:39:04;93962.00;;;14.47;72.17
7480;BME280;3781;42.272;22.658;2022-12-10T00:41:32;93977.34;;;14.50;71.76
7480;BME280;3781;42.272;22.658;2022-12-10T00:43:58;93991.47;;;14.64;71.03
7480;BME280;3781;42.272;22.658;2022-12-10T00:46:25;93980.84;;;14.65;70.86
7480;BME280;3781;42.272;22.658;2022-12-10T00:48:52;93990.38;;;14.58;71.45
7480;BME280;3781;42.272;22.658;2022-12-10T00:51:21;93993.28;;;14.63;72.57
7480;BME280;3781;42.272;22.658;2022-12-10T00:53:51;93962.75;;;14.25;72.70
7480;BME280;3781;42.272;22.658;2022-12-10T00:56:20;93965.09;;;14.20;73.43
7480;BME280;3781;42.272;22.658;2022-12-10T00:58:48;93905.69;;;13.83;73.46
7480;BME280;3781;42.272;22.658;2022-12-10T01:01:19;93959.06;;;14.19;74.83
7480;BME280;3781;42.272;22.658;2022-12-10T01:03:47;93909.13;;;13.92;74.87
7480;BME280;3781;42.272;22.658;2022-12-10T01:06:17;93957.72;;;14.23;73.90
7480;BME280;3781;42.272;22.658;2022-12-10T01:08:45;93958.88;;;14.21;75.05
7480;BME280;3781;42.272;22.658;2022-12-10T01:11:16;93949.16;;;14.07;76.88
7480;BME280;3781;42.272;22.658;2022-12-10T01:13:45;93928.69;;;13.88;78.54
7480;BME280;3781;42.272;22.658;2022-12-10T01:16:14;93941.34;;;13.99;79.31
7480;BME280;3781;42.272;22.658;2022-12-10T01:18:41;93895.66;;;13.72;80.49
7480;BME280;3781;42.272;22.658;2022-12-10T01:21:10;93941.41;;;13.91;81.57
7480;BME280;3781;42.272;22.658;2022-12-10T01:23:40;93940.44;;;13.92;81.33
7480;BME280;3781;42.272;22.658;2022-12-10T01:26:10;93926.72;;;13.90;81.70
7480;BME280;3781;42.272;22.658;2022-12-10T01:28:39;93934.59;;;13.82;82.94
7480;BME280;3781;42.272;22.658;2022-12-10T01:31:08;93930.06;;;13.76;83.37
7480;BME280;3781;42.272;22.658;2022-12-10T01:33:36;93925.47;;;13.78;82.32
7480;BME280;3781;42.272;22.658;2022-12-10T01:36:03;93921.72;;;13.80;82.15
7480;BME280;3781;42.272;22.658;2022-12-10T01:38:30;93923.63;;;13.86;81.94
7480;BME280;3781;42.272;22.658;2022-12-10T01:40:57;93926.72;;;13.90;81.44
7480;BME280;3781;42.272;22.658;2022-12-10T01:43:24;93944.47;;;13.94;79.93
7480;BME280;3781;42.272;22.658;2022-12-10T01:45:53;93935.22;;;13.84;80.00
7480;BME280;3781;42.272;22.658;2022-12-10T01:48:19;93931.19;;;13.73;81.19
7480;BME280;3781;42.272;22.658;2022-12-10T01:50:46;93905.84;;;13.59;81.44
7480;BME280;3781;42.272;22.658;2022-12-10T01:53:13;93931.75;;;13.60;81.85
7480;BME280;3781;42.272;22.658;2022-12-10T01:55:46;93930.81;;;13.45;83.39
7480;BME280;3781;42.272;22.658;2022-12-10T01:58:15;93927.25;;;13.38;84.82
7480;BME280;3781;42.272;22.658;2022-12-10T02:00:50;93924.31;;;13.33;85.17
7480;BME280;3781;42.272;22.658;2022-12-10T02:03:27;93883.91;;;13.29;83.45
7480;BME280;3781;42.272;22.658;2022-12-10T02:06:03;93919.66;;;13.59;82.66
7480;BME280;3781;42.272;22.658;2022-12-10T02:08:35;93904.09;;;13.43;83.97
7480;BME280;3781;42.272;22.658;2022-12-10T02:11:13;93913.03;;;13.49;83.98
7480;BME280;3781;42.272;22.658;2022-12-10T02:13:45;93906.38;;;13.38;84.44
7480;BME280;3781;42.272;22.658;2022-12-10T02:16:21;93893.38;;;13.30;85.48
7480;BME280;3781;42.272;22.658;2022-12-10T02:18:55;93879.06;;;13.18;86.54
7480;BME280;3781;42.272;22.658;2022-12-10T02:21:29;93891.09;;;13.27;85.91
7480;BME280;3781;42.272;22.658;2022-12-10T02:24:02;93869.97;;;13.06;88.25
7480;BME280;3781;42.272;22.658;2022-12-10T02:26:33;93878.44;;;12.92;90.32
7480;BME280;3781;42.272;22.658;2022-12-10T02:29:11;93884.28;;;12.94;91.51
7480;BME280;3781;42.272;22.658;2022-12-10T02:31:41;93877.81;;;12.82;92.48
7480;BME280;3781;42.272;22.658;2022-12-10T02:34:10;93851.44;;;12.53;94.68
7480;BME280;3781;42.272;22.658;2022-12-10T02:36:39;93843.97;;;12.50;95.48
7480;BME280;3781;42.272;22.658;2022-12-10T02:39:11;93876.50;;;12.62;97.32
7480;BME280;3781;42.272;22.658;2022-12-10T02:41:41;93869.19;;;12.57;98.50
7480;BME280;3781;42.272;22.658;2022-12-10T02:44:12;93817.97;;;12.26;100.00
7480;BME280;3781;42.272;22.658;2022-12-10T02:46:41;93843.19;;;12.41;100.00
7480;BME280;3781;42.272;22.658;2022-12-10T02:49:11;93853.75;;;12.48;100.00
7480;BME280;3781;42.272;22.658;2022-12-10T02:51:39;93856.66;;;12.69;99.60
7480;BME280;3781;42.272;22.658;2022-12-10T02:54:33;93856.34;;;12.72;97.95
7480;BME280;3781;42.272;22.658;2022-12-10T02:57:03;93851.78;;;12.50;99.81
7480;BME280;3781;42.272;22.658;2022-12-10T02:59:43;93862.81;;;12.68;97.70
7480;BME280;3781;42.272;22.658;2022-12-10T03:02:17;93845.91;;;12.72;96.09
7480;BME280;3781;42.272;22.658;2022-12-10T03:04:48;93831.59;;;12.60;96.78
7480;BME280;3781;42.272;22.658;2022-12-10T03:07:23;93854.53;;;12.64;98.31
7480;BME280;3781;42.272;22.658;2022-12-10T03:09:58;93849.84;;;12.52;99.90
7480;BME280;3781;42.272;22.658;2022-12-10T03:12:29;93848.69;;;12.54;100.00
7480;BME280;3781;42.272;22.658;2022-12-10T03:15:01;93848.53;;;12.40;100.00
7480;BME280;3781;42.272;22.658;2022-12-10T03:17:31;93838.63;;;12.35;100.00
7480;BME280;3781;42.272;22.658;2022-12-10T03:19:59;93849.84;;;12.36;100.00
7480;BME280;3781;42.272;22.658;2022-12-10T03:22:28;93842.34;;;12.41;100.00
7480;BME280;3781;42.272;22.658;2022-12-10T03:24:57;93860.25;;;12.60;100.00
7480;BME280;3781;42.272;22.658;2022-12-10T03:27:25;93853.56;;;12.73;100.00
7480;BME280;3781;42.272;22.658;2022-12-10T03:29:54;93847.88;;;12.70;100.00
7480;BME280;3781;42.272;22.658;2022-12-10T03:32:26;93852.72;;;12.81;100.00
7480;BME280;3781;42.272;22.658;2022-12-10T03:34:56;93851.44;;;12.85;100.00
7480;BME280;3781;42.272;22.658;2022-12-10T03:37:25;93842.00;;;12.60;100.00
7480;BME280;3781;42.272;22.658;2022-12-10T03:39:52;93838.28;;;12.38;100.00
7480;BME280;3781;42.272;22.658;2022-12-10T03:42:19;93848.69;;;12.54;100.00
7480;BME280;3781;42.272;22.658;2022-12-10T03:44:49;93839.75;;;12.49;100.00
7480;BME280;3781;42.272;22.658;2022-12-10T03:47:17;93843.69;;;12.29;100.00
7480;BME280;3781;42.272;22.658;2022-12-10T03:49:45;93843.66;;;12.37;100.00
7480;BME280;3781;42.272;22.658;2022-12-10T03:52:12;93841.53;;;12.40;100.00
7480;BME280;3781;42.272;22.658;2022-12-10T03:54:39;93843.66;;;12.45;100.00
7480;BME280;3781;42.272;22.658;2022-12-10T03:57:06;93850.50;;;12.30;100.00
7480;BME280;3781;42.272;22.658;2022-12-10T03:59:32;93832.28;;;12.22;100.00
7480;BME280;3781;42.272;22.658;2022-12-10T04:01:59;93845.44;;;12.36;100.00
7480;BME280;3781;42.272;22.658;2022-12-10T04:04:26;93847.56;;;12.33;100.00
7480;BME280;3781;42.272;22.658;2022-12-10T04:06:54;93840.06;;;12.30;100.00
7480;BME280;3781;42.272;22.658;2022-12-10T04:09:21;93806.59;;;11.45;100.00
7480;BME280;3781;42.272;22.658;2022-12-10T04:11:48;93832.16;;;11.57;100.00
7480;BME280;3781;42.272;22.658;2022-12-10T04:14:15;93838.72;;;11.77;100.00
7480;BME280;3781;42.272;22.658;2022-12-10T04:17:00;93854.38;;;12.01;100.00
7480;BME280;3781;42.272;22.658;2022-12-10T04:19:26;93857.63;;;12.11;100.00
7480;BME280;3781;42.272;22.658;2022-12-10T04:21:54;93857.47;;;12.05;100.00
7480;BME280;3781;42.272;22.658;2022-12-10T04:24:38;93852.94;;;11.57;100.00
7480;BME280;3781;42.272;22.658;2022-12-10T04:27:25;93853.28;;;11.62;100.00
7480;BME280;3781;42.272;22.658;2022-12-10T04:29:53;93849.66;;;11.39;100.00
7480;BME280;3781;42.272;22.658;2022-12-10T04:32:20;93845.44;;;11.46;100.00
7480;BME280;3781;42.272;22.658;2022-12-10T04:34:47;93853.34;;;11.70;100.00
7480;BME280;3781;42.272;22.658;2022-12-10T04:37:16;93861.53;;;11.91;100.00
7480;BME280;3781;42.272;22.658;2022-12-10T04:39:44;93848.84;;;11.88;100.00
7480;BME280;3781;42.272;22.658;2022-12-10T04:42:11;93836.16;;;12.01;100.00
7480;BME280;3781;42.272;22.658;2022-12-10T04:44:38;93830.63;;;11.88;100.00
7480;BME280;3781;42.272;22.658;2022-12-10T04:47:06;93831.03;;;11.60;100.00
7480;BME280;3781;42.272;22.658;2022-12-10T04:49:34;93818.16;;;11.50;100.00
7480;BME280;3781;42.272;22.658;2022-12-10T04:52:01;93819.41;;;11.30;100.00
7480;BME280;3781;42.272;22.658;2022-12-10T04:54:29;93838.06;;;11.25;100.00
7480;BME280;3781;42.272;22.658;2022-12-10T04:56:56;93858.56;;;11.28;100.00
7480;BME280;3781;42.272;22.658;2022-12-10T04:59:23;93869.44;;;11.32;100.00
7480;BME280;3781;42.272;22.658;2022-12-10T05:01:50;93877.81;;;11.18;100.00
7480;BME280;3781;42.272;22.658;2022-12-10T05:04:18;93864.63;;;11.45;100.00
7480;BME280;3781;42.272;22.658;2022-12-10T05:06:47;93887.19;;;11.78;100.00
7480;BME280;3781;42.272;22.658;2022-12-10T05:09:14;93817.66;;;11.38;100.00
7480;BME280;3781;42.272;22.658;2022-12-10T05:11:42;93875.13;;;11.69;100.00
7480;BME280;3781;42.272;22.658;2022-12-10T05:14:10;93871.19;;;11.65;100.00
7480;BME280;3781;42.272;22.658;2022-12-10T05:16:37;93876.63;;;11.72;100.00
7480;BME280;3781;42.272;22.658;2022-12-10T05:19:04;93876.16;;;11.84;100.00
7480;BME280;3781;42.272;22.658;2022-12-10T05:21:31;93864.91;;;11.84;100.00
7480;BME280;3781;42.272;22.658;2022-12-10T05:24:11;93858.91;;;11.83;100.00
7480;BME280;3781;42.272;22.658;2022-12-10T05:26:38;93861.53;;;11.91;100.00
7480;BME280;3781;42.272;22.658;2022-12-10T05:29:06;93851.09;;;11.83;100.00
7480;BME280;3781;42.272;22.658;2022-12-10T05:31:33;93855.16;;;11.78;100.00
7480;BME280;3781;42.272;22.658;2022-12-10T05:34:00;93853.69;;;11.67;100.00
7480;BME280;3781;42.272;22.658;2022-12-10T05:36:28;93857.53;;;11.63;100.00
7480;BME280;3781;42.272;22.658;2022-12-10T05:38:56;93855.81;;;11.72;100.00
7480;BME280;3781;42.272;22.658;2022-12-10T05:41:25;93860.44;;;11.60;100.00
7480;BME280;3781;42.272;22.658;2022-12-10T05:43:53;93866.22;;;11.46;100.00
7480;BME280;3781;42.272;22.658;2022-12-10T05:46:23;93861.19;;;11.36;100.00
7480;BME280;3781;42.272;22.658;2022-12-10T05:48:51;93868.97;;;11.36;100.00
7480;BME280;3781;42.272;22.658;2022-12-10T05:51:19;93865.91;;;11.33;100.00
7480;BME280;3781;42.272;22.658;2022-12-10T05:53:46;93861.66;;;11.40;100.00
7480;BME280;3781;42.272;22.658;2022-12-10T05:56:20;93867.34;;;11.69;100.00
7480;BME280;3781;42.272;22.658;2022-12-10T05:58:50;93875.50;;;11.90;100.00
7480;BME280;3781;42.272;22.658;2022-12-10T06:01:19;93876.03;;;12.02;100.00
7480;BME280;3781;42.272;22.658;2022-12-10T06:03:47;93880.91;;;12.13;100.00
7480;BME280;3781;42.272;22.658;2022-12-10T06:06:20;93883.03;;;12.18;100.00
7480;BME280;3781;42.272;22.658;2022-12-10T06:08:49;93871.28;;;12.13;100.00
7480;BME280;3781;42.272;22.658;2022-12-10T06:11:16;93866.75;;;12.07;100.00
7480;BME280;3781;42.272;22.658;2022-12-10T06:13:43;93863.50;;;12.05;100.00
7480;BME280;3781;42.272;22.658;2022-12-10T06:16:13;93876.97;;;11.85;100.00
7480;BME280;3781;42.272;22.658;2022-12-10T06:18:40;93881.16;;;11.36;100.00
7480;BME280;3781;42.272;22.658;2022-12-10T06:21:11;93870.53;;;11.21;100.00
7480;BME280;3781;42.272;22.658;2022-12-10T06:23:38;93855.97;;;11.03;100.00
7480;BME280;3781;42.272;22.658;2022-12-10T06:26:05;93846.41;;;11.03;100.00
7480;BME280;3781;42.272;22.658;2022-12-10T06:28:32;93868.72;;;11.14;100.00
7480;BME280;3781;42.272;22.658;2022-12-10T06:30:59;93870.19;;;11.16;100.00
7480;BME280;3781;42.272;22.658;2022-12-10T06:33:26;93839.63;;;11.10;100.00
7480;BME280;3781;42.272;22.658;2022-12-10T06:35:53;93870.19;;;11.16;100.00
7480;BME280;3781;42.272;22.658;2022-12-10T06:38:21;93872.63;;;11.18;100.00
7480;BME280;3781;42.272;22.658;2022-12-10T06:40:48;93873.88;;;11.06;100.00
7480;BME280;3781;42.272;22.658;2022-12-10T06:43:14;93845.56;;;10.95;100.00
7480;BME280;3781;42.272;22.658;2022-12-10T06:45:41;93880.28;;;11.19;100.00
7480;BME280;3781;42.272;22.658;2022-12-10T06:48:09;93877.91;;;11.34;100.00
7480;BME280;3781;42.272;22.658;2022-12-10T06:50:36;93869.09;;;11.27;100.00
7480;BME280;3781;42.272;22.658;2022-12-10T06:53:03;93880.28;;;11.61;100.00
7480;BME280;3781;42.272;22.658;2022-12-10T06:55:31;93881.34;;;11.84;100.00
7480;BME280;3781;42.272;22.658;2022-12-10T06:57:58;93881.28;;;11.68;100.00
7480;BME280;3781;42.272;22.658;2022-12-10T07:00:25;93875.97;;;11.70;100.00
7480;BME280;3781;42.272;22.658;2022-12-10T07:02:51;93886.06;;;11.81;100.00
7480;BME280;3781;42.272;22.658;2022-12-10T07:05:18;93895.19;;;11.93;100.00
7480;BME280;3781;42.272;22.658;2022-12-10T07:07:45;93894.41;;;12.00;100.00
7480;BME280;3781;42.272;22.658;2022-12-10T07:10:12;93863.13;;;11.84;100.00
7480;BME280;3781;42.272;22.658;2022-12-10T07:12:40;93871.28;;;11.97;100.00
7480;BME280;3781;42.272;22.658;2022-12-10T07:15:08;93900.94;;;12.45;100.00
7480;BME280;3781;42.272;22.658;2022-12-10T07:17:35;93898.19;;;12.54;100.00
7480;BME280;3781;42.272;22.658;2022-12-10T07:20:02;93907.44;;;12.49;100.00
7480;BME280;3781;42.272;22.658;2022-12-10T07:22:28;93899.31;;;12.36;100.00
7480;BME280;3781;42.272;22.658;2022-12-10T07:24:55;93892.81;;;12.48;100.00
7480;BME280;3781;42.272;22.658;2022-12-10T07:27:22;93870.84;;;12.50;100.00
7480;BME280;3781;42.272;22.658;2022-12-10T07:29:50;93896.25;;;12.48;100.00
7480;BME280;3781;42.272;22.658;2022-12-10T07:32:17;93887.09;;;12.36;100.00
7480;BME280;3781;42.272;22.658;2022-12-10T07:34:43;93892.47;;;12.43;100.00
7480;BME280;3781;42.272;22.658;2022-12-10T07:37:10;93875.53;;;12.23;100.00
7480;BME280;3781;42.272;22.658;2022-12-10T07:39:37;93855.69;;;12.05;100.00
7480;BME280;3781;42.272;22.658;2022-12-10T07:42:04;93895.09;;;12.35;100.00
7480;BME280;3781;42.272;22.658;2022-12-10T07:44:31;93891.34;;;12.45;100.00
7480;BME280;3781;42.272;22.658;2022-12-10T07:46:59;93888.25;;;12.42;100.00
7480;BME280;3781;42.272;22.658;2022-12-10T07:49:25;93879.94;;;12.62;100.00
7480;BME280;3781;42.272;22.658;2022-12-10T07:51:52;93822.81;;;12.45;100.00
7480;BME280;3781;42.272;22.658;2022-12-10T07:54:19;93888.88;;;12.84;100.00
7480;BME280;3781;42.272;22.658;2022-12-10T07:56:46;93883.97;;;13.05;100.00
7480;BME280;3781;42.272;22.658;2022-12-10T07:59:12;93789.25;;;12.66;100.00
7480;BME280;3781;42.272;22.658;2022-12-10T08:01:40;93878.00;;;13.43;100.00
7480;BME280;3781;42.272;22.658;2022-12-10T08:04:08;93862.28;;;13.59;100.00
7480;BME280;3781;42.272;22.658;2022-12-10T08:06:35;93873.47;;;13.99;100.00
7480;BME280;3781;42.272;22.658;2022-12-10T08:09:02;93875.75;;;14.02;100.00
7480;BME280;3781;42.272;22.658;2022-12-10T08:11:29;93866.31;;;14.23;99.87
7480;BME280;3781;42.272;22.658;2022-12-10T08:13:57;93871.28;;;14.41;97.76
7480;BME280;3781;42.272;22.658;2022-12-10T08:16:25;93850.28;;;14.04;97.11
7480;BME280;3781;42.272;22.658;2022-12-10T08:18:52;93859.50;;;13.92;99.41
7480;BME280;3781;42.272;22.658;2022-12-10T08:21:22;93885.56;;;14.22;99.60
7480;BME280;3781;42.272;22.658;2022-12-10T08:23:50;93877.69;;;14.53;96.04
7480;BME280;3781;42.272;22.658;2022-12-10T08:26:18;93871.44;;;14.62;95.43
7480;BME280;3781;42.272;22.658;2022-12-10T08:28:46;93866.06;;;14.78;93.22
7480;BME280;3781;42.272;22.658;2022-12-10T08:31:14;93870.44;;;15.30;91.37
7480;BME280;3781;42.272;22.658;2022-12-10T08:33:41;93875.06;;;15.71;85.89
7480;BME280;3781;42.272;22.658;2022-12-10T08:36:10;93863.38;;;15.89;83.72
7480;BME280;3781;42.272;22.658;2022-12-10T08:38:39;93862.63;;;16.09;81.08
7480;BME280;3781;42.272;22.658;2022-12-10T08:41:11;93865.47;;;16.50;78.90
7480;BME280;3781;42.272;22.658;2022-12-10T08:43:38;93845.66;;;16.47;75.89
7480;BME280;3781;42.272;22.658;2022-12-10T08:46:05;93856.03;;;16.55;75.28
7480;BME280;3781;42.272;22.658;2022-12-10T08:48:33;93853.88;;;16.44;74.96
7480;BME280;3781;42.272;22.658;2022-12-10T08:51:00;93853.16;;;16.72;74.49
7480;BME280;3781;42.272;22.658;2022-12-10T08:53:27;93859.97;;;17.21;72.30
7480;BME280;3781;42.272;22.658;2022-12-10T08:55:55;93844.41;;;16.43;75.21
7480;BME280;3781;42.272;22.658;2022-12-10T08:58:22;93838.34;;;16.85;72.95
7480;BME280;3781;42.272;22.658;2022-12-10T09:00:49;93830.69;;;17.18;70.85
7480;BME280;3781;42.272;22.658;2022-12-10T09:03:16;93815.16;;;17.23;69.75
7480;BME280;3781;42.272;22.658;2022-12-10T09:05:44;93816.31;;;17.48;70.18
7480;BME280;3781;42.272;22.658;2022-12-10T09:08:12;93799.50;;;17.36;68.64
7480;BME280;3781;42.272;22.658;2022-12-10T09:10:39;93781.09;;;17.29;69.40
7480;BME280;3781;42.272;22.658;2022-12-10T09:13:08;93771.09;;;17.12;69.60
7480;BME280;3781;42.272;22.658;2022-12-10T09:15:35;93802.06;;;17.57;67.42
7480;BME280;3781;42.272;22.658;2022-12-10T09:18:02;93786.34;;;17.70;67.28
7480;BME280;3781;42.272;22.658;2022-12-10T09:20:29;93790.47;;;18.05;65.89
7480;BME280;3781;42.272;22.658;2022-12-10T09:22:56;93759.13;;;17.97;64.82
7480;BME280;3781;42.272;22.658;2022-12-10T09:25:23;93768.63;;;17.92;64.63
7480;BME280;3781;42.272;22.658;2022-12-10T09:27:50;93768.22;;;17.88;64.99
7480;BME280;3781;42.272;22.658;2022-12-10T09:30:18;93781.09;;;17.70;65.47
7480;BME280;3781;42.272;22.658;2022-12-10T09:32:45;93768.78;;;17.30;67.13
7480;BME280;3781;42.272;22.658;2022-12-10T09:35:11;93773.72;;;16.78;68.33
7480;BME280;3781;42.272;22.658;2022-12-10T09:37:38;93755.13;;;16.73;68.83
7480;BME280;3781;42.272;22.658;2022-12-10T09:40:06;93772.13;;;16.77;69.55
7480;BME280;3781;42.272;22.658;2022-12-10T09:42:41;93771.34;;;16.83;69.62
7480;BME280;3781;42.272;22.658;2022-12-10T09:45:20;93768.22;;;16.73;70.91
7480;BME280;3781;42.272;22.658;2022-12-10T09:47:58;93714.41;;;16.21;71.14
7480;BME280;3781;42.272;22.658;2022-12-10T09:50:31;93725.41;;;16.10;74.32
7480;BME280;3781;42.272;22.658;2022-12-10T09:53:02;93746.31;;;16.31;73.42
7480;BME280;3781;42.272;22.658;2022-12-10T09:55:35;93737.28;;;16.34;71.88
7480;BME280;3781;42.272;22.658;2022-12-10T09:58:04;93717.47;;;16.04;74.25
7480;BME280;3781;42.272;22.658;2022-12-10T10:00:36;93730.00;;;16.08;73.71
7480;BME280;3781;42.272;22.658;2022-12-10T10:03:04;93716.81;;;16.44;73.26
7480;BME280;3781;42.272;22.658;2022-12-10T10:05:35;93730.31;;;17.03;70.13
7480;BME280;3781;42.272;22.658;2022-12-10T10:08:06;93694.69;;;17.28;68.94
7480;BME280;3781;42.272;22.658;2022-12-10T10:10:39;93717.50;;;18.07;65.62
7480;BME280;3781;42.272;22.658;2022-12-10T10:13:21;93709.25;;;18.37;63.45
7480;BME280;3781;42.272;22.658;2022-12-10T10:15:54;93695.84;;;18.84;61.75
7480;BME280;3781;42.272;22.658;2022-12-10T10:18:29;93710.72;;;19.16;60.59
7480;BME280;3781;42.272;22.658;2022-12-10T10:20:59;93668.09;;;18.88;59.85
7480;BME280;3781;42.272;22.658;2022-12-10T10:23:26;93672.03;;;18.40;61.33
7480;BME280;3781;42.272;22.658;2022-12-10T10:25:53;93684.56;;;17.98;63.70
7480;BME280;3781;42.272;22.658;2022-12-10T10:28:22;93643.28;;;17.60;64.05
7480;BME280;3781;42.272;22.658;2022-12-10T10:30:52;93683.69;;;17.52;65.81
7480;BME280;3781;42.272;22.658;2022-12-10T10:33:20;93674.06;;;17.25;67.36
7480;BME280;3781;42.272;22.658;2022-12-10T10:35:49;93666.56;;;17.09;68.94
7480;BME280;3781;42.272;22.658;2022-12-10T10:38:18;93660.78;;;16.86;70.18
7480;BME280;3781;42.272;22.658;2022-12-10T10:40:50;93642.78;;;16.70;70.04
7480;BME280;3781;42.272;22.658;2022-12-10T10:43:21;93665.47;;;16.90;69.98
7480;BME280;3781;42.272;22.658;2022-12-10T10:45:51;93554.66;;;16.34;70.75
7480;BME280;3781;42.272;22.658;2022-12-10T10:48:23;93642.66;;;16.91;70.16
7480;BME280;3781;42.272;22.658;2022-12-10T10:50:53;93633.75;;;16.79;70.30
7480;BME280;3781;42.272;22.658;2022-12-10T10:53:29;93645.91;;;16.93;69.94
7480;BME280;3781;42.272;22.658;2022-12-10T10:55:59;93646.66;;;16.80;70.41
7480;BME280;3781;42.272;22.658;2022-12-10T10:58:30;93627.53;;;16.93;69.01
7480;BME280;3781;42.272;22.658;2022-12-10T11:01:00;93576.41;;;16.63;68.34
7480;BME280;3781;42.272;22.658;2022-12-10T11:03:29;93603.72;;;16.94;68.39
7480;BME280;3781;42.272;22.658;2022-12-10T11:05:58;93614.88;;;16.96;69.75
7480;BME280;3781;42.272;22.658;2022-12-10T11:08:26;93617.72;;;17.14;68.12
7480;BME280;3781;42.272;22.658;2022-12-10T11:10:59;93599.19;;;17.16;66.92
7480;BME280;3781;42.272;22.658;2022-12-10T11:13:29;93600.75;;;17.04;67.18
7480;BME280;3781;42.272;22.658;2022-12-10T11:15:59;93608.34;;;16.86;68.67
7480;BME280;3781;42.272;22.658;2022-12-10T11:18:32;93605.53;;;16.81;69.99
7480;BME280;3781;42.272;22.658;2022-12-10T11:21:04;93596.19;;;16.72;70.22
7480;BME280;3781;42.272;22.658;2022-12-10T11:23:37;93567.31;;;16.58;69.58
7480;BME280;3781;42.272;22.658;2022-12-10T11:26:16;93590.53;;;16.75;69.87
7480;BME280;3781;42.272;22.658;2022-12-10T11:28:54;93586.50;;;16.66;70.05
7480;BME280;3781;42.272;22.658;2022-12-10T11:31:37;93597.13;;;16.57;71.21
7480;BME280;3781;42.272;22.658;2022-12-10T11:34:13;93597.66;;;16.46;71.42
7480;BME280;3781;42.272;22.658;2022-12-10T11:36:51;93597.16;;;16.30;73.62
7480;BME280;3781;42.272;22.658;2022-12-10T11:39:28;93588.81;;;16.13;73.56
7480;BME280;3781;42.272;22.658;2022-12-10T11:42:04;93579.84;;;16.01;73.85
7480;BME280;3781;42.272;22.658;2022-12-10T11:44:42;93585.88;;;15.95;75.11
7480;BME280;3781;42.272;22.658;2022-12-10T11:47:29;93581.28;;;16.04;76.48
7480;BME280;3781;42.272;22.658;2022-12-10T11:50:13;93577.63;;;15.98;75.24
7480;BME280;3781;42.272;22.658;2022-12-10T11:52:52;93576.41;;;15.94;76.40
7480;BME280;3781;42.272;22.658;2022-12-10T11:55:29;93580.00;;;15.93;76.83
7480;BME280;3781;42.272;22.658;2022-12-10T12:00:59;93576.94;;;15.83;77.65
7480;BME280;3781;42.272;22.658;2022-12-10T12:03:42;93537.47;;;15.57;77.98
7480;BME280;3781;42.272;22.658;2022-12-10T12:06:33;93545.34;;;15.42;79.43
7480;BME280;3781;42.272;22.658;2022-12-10T12:09:09;93507.72;;;14.94;81.18
7480;BME280;3781;42.272;22.658;2022-12-10T12:11:50;93553.03;;;15.23;81.87
7480;BME280;3781;42.272;22.658;2022-12-10T12:14:24;93550.28;;;15.09;83.06
7480;BME280;3781;42.272;22.658;2022-12-10T12:17:00;93531.00;;;15.10;84.27
7480;BME280;3781;42.272;22.658;2022-12-10T12:19:33;93528.75;;;15.29;83.15
7480;BME280;3781;42.272;22.658;2022-12-10T12:22:13;93526.13;;;15.50;80.77
7480;BME280;3781;42.272;22.658;2022-12-10T12:24:42;93524.59;;;15.62;78.03
7480;BME280;3781;42.272;22.658;2022-12-10T12:27:18;93513.44;;;15.47;79.56
7480;BME280;3781;42.272;22.658;2022-12-10T12:29:59;93499.88;;;15.16;81.43
7480;BME280;3781;42.272;22.658;2022-12-10T12:32:31;93505.94;;;15.23;82.71
7480;BME280;3781;42.272;22.658;2022-12-10T12:35:06;93486.75;;;15.09;83.51
7480;BME280;3781;42.272;22.658;2022-12-10T12:37:41;93463.66;;;14.91;78.70
7480;BME280;3781;42.272;22.658;2022-12-10T12:40:13;93479.88;;;15.08;77.20
7480;BME280;3781;42.272;22.658;2022-12-10T12:42:46;93453.63;;;14.95;77.95
7480;BME280;3781;42.272;22.658;2022-12-10T12:45:17;93460.91;;;14.99;77.69
7480;BME280;3781;42.272;22.658;2022-12-10T12:47:48;93442.13;;;14.89;77.42
7480;BME280;3781;42.272;22.658;2022-12-10T12:50:25;93452.50;;;15.04;76.79
7480;BME280;3781;42.272;22.658;2022-12-10T12:52:56;93419.38;;;14.90;77.46
7480;BME280;3781;42.272;22.658;2022-12-10T12:55:30;93459.69;;;14.95;78.71
7480;BME280;3781;42.272;22.658;2022-12-10T12:58:15;93442.50;;;14.86;78.35
7480;BME280;3781;42.272;22.658;2022-12-10T13:00:46;93463.09;;;14.96;78.21
7480;BME280;3781;42.272;22.658;2022-12-10T13:03:33;93426.56;;;14.81;81.04
7480;BME280;3781;42.272;22.658;2022-12-10T13:06:16;93466.63;;;15.09;83.25
7480;BME280;3781;42.272;22.658;2022-12-10T13:08:46;93471.84;;;15.09;83.82
7480;BME280;3781;42.272;22.658;2022-12-10T13:11:27;93473.78;;;15.01;83.66
7480;BME280;3781;42.272;22.658;2022-12-10T13:14:17;93434.56;;;14.52;85.46
7480;BME280;3781;42.272;22.658;2022-12-10T13:17:26;93451.97;;;14.87;83.93
7480;BME280;3781;42.272;22.658;2022-12-10T13:19:54;93432.25;;;14.85;83.13
7480;BME280;3781;42.272;22.658;2022-12-10T13:22:43;93430.66;;;14.90;82.43
7480;BME280;3781;42.272;22.658;2022-12-10T13:25:37;93445.69;;;15.09;80.55
7480;BME280;3781;42.272;22.658;2022-12-10T13:28:20;93446.84;;;15.00;81.52